sensor_id;sensor_type;location;lat;lon;timestamp;pressure;altitude;pressure_sealevel;temperature;humidity
82949;BME280;72736;50.236;18.876;2023-11-21T00:04:30;97899.11;;;7.66;88.46
82949;BME280;72736;50.236;18.876;2023-11-21T00:09:36;97903.80;;;7.64;88.53
82949;BME280;72736;50.236;18.876;2023-11-21T00:14:42;97906.30;;;7.64;88.40
82949;BME280;72736;50.236;18.876;2023-11-21T00:19:48;97903.31;;;7.64;88.40
82949;BME280;72736;50.236;18.876;2023-11-21T00:24:53;97906.33;;;7.65;88.42
82949;BME280;72736;50.236;18.876;2023-11-21T00:29:59;97917.05;;;7.64;88.57
82949;BME280;72736;50.236;18.876;2023-11-21T00:35:06;97921.91;;;7.65;88.62
82949;BME280;72736;50.236;18.876;2023-11-21T00:40:13;97921.61;;;7.66;88.78
82949;BME280;72736;50.236;18.876;2023-11-21T00:45:20;97918.46;;;7.66;88.68
82949;BME280;72736;50.236;18.876;2023-11-21T00:50:26;97920.10;;;7.65;88.75
82949;BME280;72736;50.236;18.876;2023-11-21T00:55:31;97917.58;;;7.65;88.53
82949;BME280;72736;50.236;18.876;2023-11-21T01:00:37;97925.92;;;7.63;88.39
82949;BME280;72736;50.236;18.876;2023-11-21T01:05:45;97923.21;;;7.62;88.42
82949;BME280;72736;50.236;18.876;2023-11-21T01:10:50;97921.03;;;7.62;88.23
82949;BME280;72736;50.236;18.876;2023-11-21T01:15:56;97919.68;;;7.58;88.07
82949;BME280;72736;50.236;18.876;2023-11-21T01:21:02;97917.01;;;7.55;87.92
82949;BME280;72736;50.236;18.876;2023-11-21T01:26:08;97923.13;;;7.53;87.65
82949;BME280;72736;50.236;18.876;2023-11-21T01:31:14;97923.55;;;7.53;87.80
82949;BME280;72736;50.236;18.876;2023-11-21T01:36:20;97924.00;;;7.52;87.74
82949;BME280;72736;50.236;18.876;2023-11-21T01:41:27;97932.23;;;7.52;87.78
82949;BME280;72736;50.236;18.876;2023-11-21T01:46:33;97937.61;;;7.51;87.65
82949;BME280;72736;50.236;18.876;2023-11-21T01:51:39;97939.99;;;7.51;87.53
82949;BME280;72736;50.236;18.876;2023-11-21T01:56:47;97944.99;;;7.51;87.56
82949;BME280;72736;50.236;18.876;2023-11-21T02:01:53;97946.73;;;7.50;87.34
82949;BME280;72736;50.236;18.876;2023-11-21T02:07:00;97949.02;;;7.46;87.40
82949;BME280;72736;50.236;18.876;2023-11-21T02:12:07;97948.20;;;7.45;87.16
82949;BME280;72736;50.236;18.876;2023-11-21T02:17:15;97943.04;;;7.44;87.25
82949;BME280;72736;50.236;18.876;2023-11-21T02:22:22;97945.93;;;7.42;87.25
82949;BME280;72736;50.236;18.876;2023-11-21T02:27:30;97938.88;;;7.41;87.09
82949;BME280;72736;50.236;18.876;2023-11-21T02:32:36;97945.66;;;7.41;86.94
82949;BME280;72736;50.236;18.876;2023-11-21T02:37:53;97942.63;;;7.41;87.03
82949;BME280;72736;50.236;18.876;2023-11-21T02:42:59;97942.95;;;7.41;87.06
82949;BME280;72736;50.236;18.876;2023-11-21T02:48:05;97940.73;;;7.40;86.94
82949;BME280;72736;50.236;18.876;2023-11-21T02:53:10;97944.92;;;7.39;86.88
82949;BME280;72736;50.236;18.876;2023-11-21T02:58:17;97950.75;;;7.39;86.72
82949;BME280;72736;50.236;18.876;2023-11-21T03:03:23;97955.48;;;7.36;86.83
82949;BME280;72736;50.236;18.876;2023-11-21T03:08:30;97963.48;;;7.36;86.93
82949;BME280;72736;50.236;18.876;2023-11-21T03:13:36;97959.14;;;7.36;86.72
82949;BME280;72736;50.236;18.876;2023-11-21T03:18:42;97960.09;;;7.36;86.74
82949;BME280;72736;50.236;18.876;2023-11-21T03:23:49;97965.20;;;7.36;86.66
82949;BME280;72736;50.236;18.876;2023-11-21T03:28:55;97967.99;;;7.36;86.73
82949;BME280;72736;50.236;18.876;2023-11-21T03:34:00;97970.20;;;7.37;86.68
82949;BME280;72736;50.236;18.876;2023-11-21T03:39:06;97976.42;;;7.38;86.82
82949;BME280;72736;50.236;18.876;2023-11-21T03:44:12;97977.89;;;7.39;86.88
82949;BME280;72736;50.236;18.876;2023-11-21T03:49:18;97975.69;;;7.38;86.98
82949;BME280;72736;50.236;18.876;2023-11-21T03:54:26;97970.27;;;7.39;86.92
82949;BME280;72736;50.236;18.876;2023-11-21T03:59:32;97976.93;;;7.39;86.90
82949;BME280;72736;50.236;18.876;2023-11-21T04:04:38;97974.72;;;7.40;86.82
82949;BME280;72736;50.236;18.876;2023-11-21T04:09:45;97979.06;;;7.41;86.96
82949;BME280;72736;50.236;18.876;2023-11-21T04:14:51;97982.55;;;7.40;87.02
82949;BME280;72736;50.236;18.876;2023-11-21T04:19:59;97980.53;;;7.40;86.91
82949;BME280;72736;50.236;18.876;2023-11-21T04:25:06;97982.34;;;7.40;87.01
82949;BME280;72736;50.236;18.876;2023-11-21T04:30:13;97981.33;;;7.40;87.03
82949;BME280;72736;50.236;18.876;2023-11-21T04:35:19;97989.73;;;7.39;87.09
82949;BME280;72736;50.236;18.876;2023-11-21T04:40:25;97994.61;;;7.39;86.98
82949;BME280;72736;50.236;18.876;2023-11-21T04:45:31;97999.48;;;7.34;87.14
82949;BME280;72736;50.236;18.876;2023-11-21T04:50:37;98001.45;;;7.34;87.07
82949;BME280;72736;50.236;18.876;2023-11-21T04:55:43;98005.88;;;7.34;87.17
82949;BME280;72736;50.236;18.876;2023-11-21T05:00:50;98004.48;;;7.36;87.19
82949;BME280;72736;50.236;18.876;2023-11-21T05:05:56;98004.91;;;7.36;87.23
82949;BME280;72736;50.236;18.876;2023-11-21T05:11:02;98012.59;;;7.36;87.23
82949;BME280;72736;50.236;18.876;2023-11-21T05:16:07;98013.20;;;7.35;87.22
82949;BME280;72736;50.236;18.876;2023-11-21T05:21:13;98016.02;;;7.33;87.15
82949;BME280;72736;50.236;18.876;2023-11-21T05:26:19;98017.25;;;7.31;87.26
82949;BME280;72736;50.236;18.876;2023-11-21T05:31:25;98020.26;;;7.29;87.26
82949;BME280;72736;50.236;18.876;2023-11-21T05:36:31;98022.30;;;7.30;87.25
82949;BME280;72736;50.236;18.876;2023-11-21T05:41:38;98025.38;;;7.30;87.07
82949;BME280;72736;50.236;18.876;2023-11-21T05:46:44;98029.76;;;7.28;87.19
82949;BME280;72736;50.236;18.876;2023-11-21T05:51:49;98038.08;;;7.29;87.44
82949;BME280;72736;50.236;18.876;2023-11-21T05:56:58;98039.33;;;7.29;87.36
82949;BME280;72736;50.236;18.876;2023-11-21T06:02:05;98041.81;;;7.29;87.30
82949;BME280;72736;50.236;18.876;2023-11-21T06:07:12;98050.09;;;7.29;87.22
82949;BME280;72736;50.236;18.876;2023-11-21T06:12:19;98053.94;;;7.31;87.14
82949;BME280;72736;50.236;18.876;2023-11-21T06:17:25;98061.73;;;7.35;87.25
82949;BME280;72736;50.236;18.876;2023-11-21T06:22:32;98067.59;;;7.38;87.06
82949;BME280;72736;50.236;18.876;2023-11-21T06:27:40;98070.11;;;7.40;86.86
82949;BME280;72736;50.236;18.876;2023-11-21T06:32:46;98069.61;;;7.40;86.95
82949;BME280;72736;50.236;18.876;2023-11-21T06:37:52;98072.52;;;7.40;86.96
82949;BME280;72736;50.236;18.876;2023-11-21T06:42:58;98072.93;;;7.40;87.07
82949;BME280;72736;50.236;18.876;2023-11-21T06:48:05;98075.04;;;7.39;86.99
82949;BME280;72736;50.236;18.876;2023-11-21T06:53:11;98085.29;;;7.38;87.16
82949;BME280;72736;50.236;18.876;2023-11-21T06:58:18;98084.97;;;7.36;86.96
82949;BME280;72736;50.236;18.876;2023-11-21T07:03:24;98090.10;;;7.37;86.95
82949;BME280;72736;50.236;18.876;2023-11-21T07:08:30;98083.82;;;7.37;86.88
82949;BME280;72736;50.236;18.876;2023-11-21T07:13:36;98095.38;;;7.38;87.06
82949;BME280;72736;50.236;18.876;2023-11-21T07:18:42;98107.58;;;7.40;86.88
82949;BME280;72736;50.236;18.876;2023-11-21T07:23:48;98108.52;;;7.41;86.90
82949;BME280;72736;50.236;18.876;2023-11-21T07:28:54;98100.97;;;7.41;86.94
82949;BME280;72736;50.236;18.876;2023-11-21T07:34:00;98099.09;;;7.42;86.75
82949;BME280;72736;50.236;18.876;2023-11-21T07:39:06;98106.22;;;7.42;86.79
82949;BME280;72736;50.236;18.876;2023-11-21T07:44:11;98106.55;;;7.42;86.79
82949;BME280;72736;50.236;18.876;2023-11-21T07:49:17;98106.14;;;7.41;86.84
82949;BME280;72736;50.236;18.876;2023-11-21T07:54:25;98114.25;;;7.42;86.74
82949;BME280;72736;50.236;18.876;2023-11-21T07:59:32;98119.23;;;7.42;86.83
82949;BME280;72736;50.236;18.876;2023-11-21T08:04:38;98118.93;;;7.42;86.72
82949;BME280;72736;50.236;18.876;2023-11-21T08:09:44;98116.29;;;7.44;86.89
82949;BME280;72736;50.236;18.876;2023-11-21T08:14:51;98117.11;;;7.45;86.63
82949;BME280;72736;50.236;18.876;2023-11-21T08:19:57;98123.65;;;7.47;86.50
82949;BME280;72736;50.236;18.876;2023-11-21T08:25:03;98120.61;;;7.51;86.56
82949;BME280;72736;50.236;18.876;2023-11-21T08:30:11;98123.53;;;7.56;86.41
82949;BME280;72736;50.236;18.876;2023-11-21T08:35:18;98128.86;;;7.61;86.55
82949;BME280;72736;50.236;18.876;2023-11-21T08:40:25;98132.20;;;7.66;86.66
82949;BME280;72736;50.236;18.876;2023-11-21T08:45:31;98141.03;;;7.72;86.67
82949;BME280;72736;50.236;18.876;2023-11-21T08:50:39;98143.23;;;7.75;86.69
82949;BME280;72736;50.236;18.876;2023-11-21T08:55:45;98142.96;;;7.78;86.49
82949;BME280;72736;50.236;18.876;2023-11-21T09:00:51;98145.90;;;7.80;86.58
82949;BME280;72736;50.236;18.876;2023-11-21T09:05:57;98151.43;;;7.81;86.39
82949;BME280;72736;50.236;18.876;2023-11-21T09:11:03;98152.16;;;7.83;86.21
82949;BME280;72736;50.236;18.876;2023-11-21T09:16:09;98153.98;;;7.87;86.32
82949;BME280;72736;50.236;18.876;2023-11-21T09:21:15;98151.50;;;7.90;86.32
82949;BME280;72736;50.236;18.876;2023-11-21T09:26:21;98151.95;;;7.92;86.24
82949;BME280;72736;50.236;18.876;2023-11-21T09:31:26;98147.23;;;7.96;86.21
82949;BME280;72736;50.236;18.876;2023-11-21T09:36:31;98142.39;;;8.03;86.26
82949;BME280;72736;50.236;18.876;2023-11-21T09:41:46;98143.20;;;8.16;86.49
82949;BME280;72736;50.236;18.876;2023-11-21T09:46:54;98146.41;;;8.29;86.53
82949;BME280;72736;50.236;18.876;2023-11-21T09:52:03;98144.23;;;8.35;86.22
82949;BME280;72736;50.236;18.876;2023-11-21T09:57:10;98146.84;;;8.37;85.79
82949;BME280;72736;50.236;18.876;2023-11-21T10:02:18;98145.45;;;8.37;85.51
82949;BME280;72736;50.236;18.876;2023-11-21T10:07:25;98140.60;;;8.36;85.23
82949;BME280;72736;50.236;18.876;2023-11-21T10:12:33;98138.72;;;8.31;84.97
82949;BME280;72736;50.236;18.876;2023-11-21T10:17:40;98143.85;;;8.25;84.61
82949;BME280;72736;50.236;18.876;2023-11-21T10:22:48;98152.17;;;8.18;84.50
82949;BME280;72736;50.236;18.876;2023-11-21T10:27:59;98151.48;;;8.10;84.41
82949;BME280;72736;50.236;18.876;2023-11-21T10:33:05;98149.77;;;8.05;84.62
82949;BME280;72736;50.236;18.876;2023-11-21T10:38:13;98149.52;;;7.98;84.53
82949;BME280;72736;50.236;18.876;2023-11-21T10:43:19;98150.91;;;7.93;84.61
82949;BME280;72736;50.236;18.876;2023-11-21T10:48:26;98148.23;;;7.89;84.58
82949;BME280;72736;50.236;18.876;2023-11-21T10:53:33;98144.67;;;7.86;84.32
82949;BME280;72736;50.236;18.876;2023-11-21T10:58:37;98152.54;;;7.88;84.05
82949;BME280;72736;50.236;18.876;2023-11-21T11:03:45;98149.86;;;7.90;84.27
82949;BME280;72736;50.236;18.876;2023-11-21T11:08:52;98150.14;;;7.92;84.26
82949;BME280;72736;50.236;18.876;2023-11-21T11:14:00;98150.30;;;7.94;84.05
82949;BME280;72736;50.236;18.876;2023-11-21T11:19:08;98149.95;;;7.96;84.04
82949;BME280;72736;50.236;18.876;2023-11-21T11:24:27;98147.73;;;7.99;84.08
82949;BME280;72736;50.236;18.876;2023-11-21T11:29:44;98147.27;;;8.03;84.00
82949;BME280;72736;50.236;18.876;2023-11-21T11:34:59;98146.34;;;8.06;83.54
82949;BME280;72736;50.236;18.876;2023-11-21T11:40:10;98148.90;;;8.09;83.40
82949;BME280;72736;50.236;18.876;2023-11-21T11:45:22;98146.11;;;8.11;83.30
82949;BME280;72736;50.236;18.876;2023-11-21T11:50:29;98153.23;;;8.13;83.02
82949;BME280;72736;50.236;18.876;2023-11-21T11:55:35;98155.55;;;8.17;83.21
82949;BME280;72736;50.236;18.876;2023-11-21T12:00:43;98160.29;;;8.19;83.13
82949;BME280;72736;50.236;18.876;2023-11-21T12:05:53;98161.90;;;8.22;83.10
82949;BME280;72736;50.236;18.876;2023-11-21T12:11:05;98159.27;;;8.21;82.99
82949;BME280;72736;50.236;18.876;2023-11-21T12:16:11;98161.39;;;8.19;82.65
82949;BME280;72736;50.236;18.876;2023-11-21T12:21:17;98161.91;;;8.16;82.43
82949;BME280;72736;50.236;18.876;2023-11-21T12:26:26;98162.73;;;8.10;82.24
82949;BME280;72736;50.236;18.876;2023-11-21T12:31:32;98157.56;;;8.05;82.26
82949;BME280;72736;50.236;18.876;2023-11-21T12:36:39;98159.50;;;8.02;82.27
82949;BME280;72736;50.236;18.876;2023-11-21T12:41:44;98159.55;;;8.01;82.12
82949;BME280;72736;50.236;18.876;2023-11-21T12:46:50;98162.35;;;7.98;82.19
82949;BME280;72736;50.236;18.876;2023-11-21T12:51:57;98162.91;;;7.97;82.41
82949;BME280;72736;50.236;18.876;2023-11-21T12:57:04;98166.80;;;7.96;82.63
82949;BME280;72736;50.236;18.876;2023-11-21T13:02:14;98170.25;;;7.97;82.71
82949;BME280;72736;50.236;18.876;2023-11-21T13:07:20;98180.83;;;7.97;83.09
82949;BME280;72736;50.236;18.876;2023-11-21T13:12:27;98179.71;;;7.99;83.11
82949;BME280;72736;50.236;18.876;2023-11-21T13:17:32;98181.26;;;8.02;83.25
82949;BME280;72736;50.236;18.876;2023-11-21T13:22:39;98183.00;;;8.05;83.37
82949;BME280;72736;50.236;18.876;2023-11-21T13:27:45;98185.13;;;8.05;83.32
82949;BME280;72736;50.236;18.876;2023-11-21T13:32:51;98186.70;;;8.04;83.30
82949;BME280;72736;50.236;18.876;2023-11-21T13:37:57;98187.31;;;8.03;83.42
82949;BME280;72736;50.236;18.876;2023-11-21T13:43:04;98186.52;;;8.01;83.40
82949;BME280;72736;50.236;18.876;2023-11-21T13:48:15;98194.14;;;8.00;83.45
82949;BME280;72736;50.236;18.876;2023-11-21T13:53:29;98195.55;;;7.98;83.37
82949;BME280;72736;50.236;18.876;2023-11-21T13:58:35;98194.14;;;7.95;83.32
82949;BME280;72736;50.236;18.876;2023-11-21T14:03:49;98198.79;;;7.94;83.37
82949;BME280;72736;50.236;18.876;2023-11-21T14:09:01;98204.13;;;7.93;83.64
82949;BME280;72736;50.236;18.876;2023-11-21T14:14:10;98202.58;;;7.90;83.55
82949;BME280;72736;50.236;18.876;2023-11-21T14:19:15;98203.82;;;7.87;83.75
82949;BME280;72736;50.236;18.876;2023-11-21T14:24:22;98202.98;;;7.84;83.81
82949;BME280;72736;50.236;18.876;2023-11-21T14:29:28;98205.08;;;7.81;83.97
82949;BME280;72736;50.236;18.876;2023-11-21T14:34:33;98208.59;;;7.79;83.96
82949;BME280;72736;50.236;18.876;2023-11-21T14:39:38;98214.58;;;7.77;84.06
82949;BME280;72736;50.236;18.876;2023-11-21T14:44:49;98220.67;;;7.74;84.24
82949;BME280;72736;50.236;18.876;2023-11-21T14:49:56;98221.85;;;7.73;84.14
82949;BME280;72736;50.236;18.876;2023-11-21T14:55:06;98218.84;;;7.72;84.50
82949;BME280;72736;50.236;18.876;2023-11-21T15:00:36;98223.47;;;7.71;84.57
82949;BME280;72736;50.236;18.876;2023-11-21T15:05:49;98228.89;;;7.70;84.66
82949;BME280;72736;50.236;18.876;2023-11-21T15:10:55;98224.39;;;7.69;84.93
82949;BME280;72736;50.236;18.876;2023-11-21T15:16:01;98227.95;;;7.69;84.82
82949;BME280;72736;50.236;18.876;2023-11-21T15:21:12;98231.57;;;7.69;84.82
82949;BME280;72736;50.236;18.876;2023-11-21T15:26:18;98230.45;;;7.69;84.99
82949;BME280;72736;50.236;18.876;2023-11-21T15:31:24;98237.84;;;7.70;85.02
82949;BME280;72736;50.236;18.876;2023-11-21T15:36:29;98237.14;;;7.70;85.20
82949;BME280;72736;50.236;18.876;2023-11-21T15:41:35;98244.52;;;7.69;85.12
82949;BME280;72736;50.236;18.876;2023-11-21T15:46:42;98247.32;;;7.69;85.25
82949;BME280;72736;50.236;18.876;2023-11-21T15:51:48;98257.59;;;7.71;85.26
82949;BME280;72736;50.236;18.876;2023-11-21T15:57:00;98264.70;;;7.71;85.30
82949;BME280;72736;50.236;18.876;2023-11-21T16:02:09;98270.55;;;7.71;85.36
82949;BME280;72736;50.236;18.876;2023-11-21T16:07:16;98277.33;;;7.71;85.38
82949;BME280;72736;50.236;18.876;2023-11-21T16:12:22;98283.55;;;7.71;85.33
82949;BME280;72736;50.236;18.876;2023-11-21T16:17:28;98289.21;;;7.71;85.39
82949;BME280;72736;50.236;18.876;2023-11-21T16:22:32;98293.37;;;7.70;85.57
82949;BME280;72736;50.236;18.876;2023-11-21T16:27:39;98298.45;;;7.70;85.63
82949;BME280;72736;50.236;18.876;2023-11-21T16:32:47;98305.59;;;7.69;85.59
82949;BME280;72736;50.236;18.876;2023-11-21T16:37:52;98312.45;;;7.70;85.67
82949;BME280;72736;50.236;18.876;2023-11-21T16:42:58;98314.57;;;7.70;85.66
82949;BME280;72736;50.236;18.876;2023-11-21T16:48:05;98316.79;;;7.69;85.60
82949;BME280;72736;50.236;18.876;2023-11-21T16:53:13;98322.61;;;7.70;85.67
82949;BME280;72736;50.236;18.876;2023-11-21T16:58:18;98329.47;;;7.69;85.41
82949;BME280;72736;50.236;18.876;2023-11-21T17:03:24;98339.61;;;7.57;85.02
82949;BME280;72736;50.236;18.876;2023-11-21T17:08:31;98340.13;;;7.38;84.92
82949;BME280;72736;50.236;18.876;2023-11-21T17:13:36;98354.42;;;7.21;84.46
82949;BME280;72736;50.236;18.876;2023-11-21T17:18:42;98360.52;;;7.03;84.34
82949;BME280;72736;50.236;18.876;2023-11-21T17:23:48;98370.34;;;6.86;84.42
82949;BME280;72736;50.236;18.876;2023-11-21T17:28:54;98372.05;;;6.75;84.04
82949;BME280;72736;50.236;18.876;2023-11-21T17:34:01;98377.69;;;6.55;83.76
82949;BME280;72736;50.236;18.876;2023-11-21T17:39:07;98386.32;;;6.33;83.83
82949;BME280;72736;50.236;18.876;2023-11-21T17:44:15;98395.06;;;6.22;83.82
82949;BME280;72736;50.236;18.876;2023-11-21T17:49:21;98406.63;;;6.08;83.32
82949;BME280;72736;50.236;18.876;2023-11-21T17:54:28;98410.07;;;5.86;82.71
82949;BME280;72736;50.236;18.876;2023-11-21T17:59:33;98423.21;;;5.69;82.75
82949;BME280;72736;50.236;18.876;2023-11-21T18:04:38;98431.84;;;5.58;82.87
82949;BME280;72736;50.236;18.876;2023-11-21T18:09:44;98435.77;;;5.36;82.56
82949;BME280;72736;50.236;18.876;2023-11-21T18:14:50;98436.32;;;5.19;82.51
82949;BME280;72736;50.236;18.876;2023-11-21T18:19:54;98443.20;;;5.04;82.30
82949;BME280;72736;50.236;18.876;2023-11-21T18:25:01;98453.40;;;4.94;82.32
82949;BME280;72736;50.236;18.876;2023-11-21T18:30:06;98459.64;;;4.85;81.97
82949;BME280;72736;50.236;18.876;2023-11-21T18:35:13;98466.45;;;4.88;82.08
82949;BME280;72736;50.236;18.876;2023-11-21T18:40:19;98471.61;;;4.90;81.79
82949;BME280;72736;50.236;18.876;2023-11-21T18:45:25;98484.67;;;4.90;81.50
82949;BME280;72736;50.236;18.876;2023-11-21T18:50:31;98501.43;;;4.88;81.31
82949;BME280;72736;50.236;18.876;2023-11-21T18:55:38;98504.29;;;4.80;81.25
82949;BME280;72736;50.236;18.876;2023-11-21T19:00:46;98512.15;;;4.75;80.49
82949;BME280;72736;50.236;18.876;2023-11-21T19:05:52;98513.64;;;4.64;80.48
82949;BME280;72736;50.236;18.876;2023-11-21T19:10:58;98520.11;;;4.62;80.68
82949;BME280;72736;50.236;18.876;2023-11-21T19:16:05;98528.98;;;4.66;81.02
82949;BME280;72736;50.236;18.876;2023-11-21T19:21:14;98537.39;;;4.54;80.21
82949;BME280;72736;50.236;18.876;2023-11-21T19:26:20;98550.13;;;4.41;80.01
82949;BME280;72736;50.236;18.876;2023-11-21T19:31:26;98557.29;;;4.23;79.90
82949;BME280;72736;50.236;18.876;2023-11-21T19:36:32;98565.19;;;4.14;80.36
82949;BME280;72736;50.236;18.876;2023-11-21T19:41:39;98577.81;;;4.12;80.11
82949;BME280;72736;50.236;18.876;2023-11-21T19:46:48;98587.36;;;4.13;80.16
82949;BME280;72736;50.236;18.876;2023-11-21T19:51:55;98595.35;;;4.10;79.69
82949;BME280;72736;50.236;18.876;2023-11-21T19:57:05;98606.70;;;4.01;79.42
82949;BME280;72736;50.236;18.876;2023-11-21T20:02:12;98610.88;;;3.84;79.60
82949;BME280;72736;50.236;18.876;2023-11-21T20:07:18;98625.03;;;3.81;79.90
82949;BME280;72736;50.236;18.876;2023-11-21T20:12:26;98633.42;;;3.76;79.50
82949;BME280;72736;50.236;18.876;2023-11-21T20:17:34;98647.96;;;3.72;79.35
82949;BME280;72736;50.236;18.876;2023-11-21T20:22:42;98658.62;;;3.56;79.20
82949;BME280;72736;50.236;18.876;2023-11-21T20:27:50;98664.25;;;3.44;78.91
82949;BME280;72736;50.236;18.876;2023-11-21T20:32:56;98666.39;;;3.36;79.28
82949;BME280;72736;50.236;18.876;2023-11-21T20:38:03;98671.81;;;3.34;79.49
82949;BME280;72736;50.236;18.876;2023-11-21T20:43:09;98678.96;;;3.35;79.63
82949;BME280;72736;50.236;18.876;2023-11-21T20:48:15;98689.45;;;3.36;79.56
82949;BME280;72736;50.236;18.876;2023-11-21T20:53:24;98696.11;;;3.35;79.33
82949;BME280;72736;50.236;18.876;2023-11-21T20:58:30;98703.44;;;3.29;79.08
82949;BME280;72736;50.236;18.876;2023-11-21T21:03:36;98711.95;;;3.23;79.19
82949;BME280;72736;50.236;18.876;2023-11-21T21:08:42;98727.77;;;3.20;78.97
82949;BME280;72736;50.236;18.876;2023-11-21T21:13:48;98727.98;;;3.13;78.79
82949;BME280;72736;50.236;18.876;2023-11-21T21:18:57;98741.09;;;3.04;78.46
82949;BME280;72736;50.236;18.876;2023-11-21T21:24:05;98754.30;;;2.97;78.58
82949;BME280;72736;50.236;18.876;2023-11-21T21:29:11;98762.05;;;2.92;78.50
82949;BME280;72736;50.236;18.876;2023-11-21T21:34:17;98775.95;;;2.71;78.42
82949;BME280;72736;50.236;18.876;2023-11-21T21:39:22;98778.28;;;2.56;78.88
82949;BME280;72736;50.236;18.876;2023-11-21T21:44:28;98796.62;;;2.48;78.82
82949;BME280;72736;50.236;18.876;2023-11-21T21:49:34;98801.95;;;2.43;78.60
82949;BME280;72736;50.236;18.876;2023-11-21T21:54:41;98809.71;;;2.48;79.39
82949;BME280;72736;50.236;18.876;2023-11-21T21:59:47;98817.44;;;2.45;78.31
82949;BME280;72736;50.236;18.876;2023-11-21T22:04:53;98824.35;;;2.29;78.72
82949;BME280;72736;50.236;18.876;2023-11-21T22:10:00;98826.33;;;2.21;78.46
82949;BME280;72736;50.236;18.876;2023-11-21T22:15:08;98829.60;;;2.21;79.19
82949;BME280;72736;50.236;18.876;2023-11-21T22:20:14;98829.38;;;2.27;79.14
82949;BME280;72736;50.236;18.876;2023-11-21T22:25:20;98832.75;;;2.27;78.80
82949;BME280;72736;50.236;18.876;2023-11-21T22:30:25;98842.35;;;2.21;78.85
82949;BME280;72736;50.236;18.876;2023-11-21T22:35:31;98848.38;;;2.14;78.88
82949;BME280;72736;50.236;18.876;2023-11-21T22:40:39;98854.30;;;2.02;78.90
82949;BME280;72736;50.236;18.876;2023-11-21T22:45:45;98859.98;;;1.94;79.27
82949;BME280;72736;50.236;18.876;2023-11-21T22:50:51;98869.15;;;1.86;79.52
82949;BME280;72736;50.236;18.876;2023-11-21T22:55:56;98872.42;;;1.73;78.88
82949;BME280;72736;50.236;18.876;2023-11-21T23:01:02;98880.08;;;1.63;79.30
82949;BME280;72736;50.236;18.876;2023-11-21T23:06:10;98883.45;;;1.57;79.05
82949;BME280;72736;50.236;18.876;2023-11-21T23:11:17;98886.32;;;1.50;79.78
82949;BME280;72736;50.236;18.876;2023-11-21T23:16:23;98892.55;;;1.48;80.21
82949;BME280;72736;50.236;18.876;2023-11-21T23:21:28;98899.02;;;1.47;79.83
82949;BME280;72736;50.236;18.876;2023-11-21T23:26:36;98914.75;;;1.48;79.99
82949;BME280;72736;50.236;18.876;2023-11-21T23:31:44;98917.06;;;1.41;79.82
82949;BME280;72736;50.236;18.876;2023-11-21T23:36:49;98918.44;;;1.37;79.74
82949;BME280;72736;50.236;18.876;2023-11-21T23:41:55;98929.96;;;1.36;79.79
82949;BME280;72736;50.236;18.876;2023-11-21T23:47:01;98941.30;;;1.35;79.52
82949;BME280;72736;50.236;18.876;2023-11-21T23:52:09;98943.94;;;1.42;79.90
82949;BME280;72736;50.236;18.876;2023-11-21T23:57:14;98946.44;;;1.45;79.12
